Map

Track Data

SID SEASON NUMBER BASIN SUBBASIN NAME ISO_TIME NATURE LAT LON WMO_WIND WMO_PRES WMO_AGENCY TRACK_TYPE DIST2LAND LANDFALL IFLAG USA_AGENCY USA_ATCF_ID USA_LAT USA_LON USA_RECORD USA_STATUS USA_WIND USA_PRES USA_SSHS USA_R34_NE USA_R34_SE USA_R34_SW USA_R34_NW USA_R50_NE USA_R50_SE USA_R50_SW USA_R50_NW USA_R64_NE USA_R64_SE USA_R64_SW USA_R64_NW USA_POCI USA_ROCI USA_RMW USA_EYE TOKYO_LAT TOKYO_LON TOKYO_GRADE TOKYO_WIND TOKYO_PRES TOKYO_R50_DIR TOKYO_R50_LONG TOKYO_R50_SHORT TOKYO_R30_DIR TOKYO_R30_LONG TOKYO_R30_SHORT TOKYO_LAND CMA_LAT CMA_LON CMA_CAT CMA_WIND CMA_PRES HKO_LAT HKO_LON HKO_CAT HKO_WIND HKO_PRES NEWDELHI_LAT NEWDELHI_LON NEWDELHI_GRADE NEWDELHI_WIND NEWDELHI_PRES NEWDELHI_CI NEWDELHI_DP NEWDELHI_POCI REUNION_LAT REUNION_LON REUNION_TYPE REUNION_WIND REUNION_PRES REUNION_TNUM REUNION_CI REUNION_RMW REUNION_R34_NE REUNION_R34_SE REUNION_R34_SW REUNION_R34_NW REUNION_R50_NE REUNION_R50_SE REUNION_R50_SW REUNION_R50_NW REUNION_R64_NE REUNION_R64_SE REUNION_R64_SW REUNION_R64_NW BOM_LAT BOM_LON BOM_TYPE BOM_WIND BOM_PRES BOM_TNUM BOM_CI BOM_RMW BOM_R34_NE BOM_R34_SE BOM_R34_SW BOM_R34_NW BOM_R50_NE BOM_R50_SE BOM_R50_SW BOM_R50_NW BOM_R64_NE BOM_R64_SE BOM_R64_SW BOM_R64_NW BOM_ROCI BOM_POCI BOM_EYE BOM_POS_METHOD BOM_PRES_METHOD NADI_LAT NADI_LON NADI_CAT NADI_WIND NADI_PRES WELLINGTON_LAT WELLINGTON_LON WELLINGTON_WIND WELLINGTON_PRES DS824_LAT DS824_LON DS824_STAGE DS824_WIND DS824_PRES TD9636_LAT TD9636_LON TD9636_STAGE TD9636_WIND TD9636_PRES TD9635_LAT TD9635_LON TD9635_WIND TD9635_PRES TD9635_ROCI NEUMANN_LAT NEUMANN_LON NEUMANN_CLASS NEUMANN_WIND NEUMANN_PRES MLC_LAT MLC_LON MLC_CLASS MLC_WIND MLC_PRES USA_GUST BOM_GUST BOM_GUST_PER REUNION_GUST REUNION_GUST_PER USA_SEAHGT USA_SEARAD_NE USA_SEARAD_SE USA_SEARAD_SW USA_SEARAD_NW STORM_SPEED STORM_DIR
1912081S11081 1912 15 SI MM NOT_NAMED 1912-03-21 06:00:00 NR -10.7000 80.5000 main 1860 1860 _____O________ -1 -10.7000 80.5000 99 9.90000 2 98
1912081S11081 1912 15 SI MM NOT_NAMED 1912-03-21 09:00:00 NR -10.7151 80.6115 main 1860 1860 _____P________ -1 -10.7151 80.6115 99 2 98
1912081S11081 1912 15 SI MM NOT_NAMED 1912-03-21 12:00:00 NR -10.7311 80.7266 main 1860 1860 _____P________ -1 -10.7311 80.7266 99 2 98
1912081S11081 1912 15 SI MM NOT_NAMED 1912-03-21 15:00:00 NR -10.7491 80.8491 main 1860 1860 _____P________ -1 -10.7491 80.8491 99 3 99
1912081S11081 1912 15 SI MM NOT_NAMED 1912-03-21 18:00:00 NR -10.7698 80.9826 main 1871 1871 _____P________ -1 -10.7698 80.9826 99 3 99
1912081S11081 1912 15 SI MM NOT_NAMED 1912-03-21 21:00:00 NR -10.7943 81.1307 main 1872 1872 _____P________ -1 -10.7943 81.1307 99 3 100
1912081S11081 1912 15 SI MM NOT_NAMED 1912-03-22 00:00:00 NR -10.8236 81.2972 main 1872 1872 _____P________ -1 -10.8236 81.2972 99 4 100
1912081S11081 1912 15 SI MM NOT_NAMED 1912-03-22 03:00:00 NR -10.8585 81.4858 main 1885 1885 _____P________ -1 -10.8585 81.4858 99 4 101
1912081S11081 1912 15 SI MM NOT_NAMED 1912-03-22 06:00:00 NR -10.9000 81.7000 main 1886 1886 _____O________ -1 -10.9000 81.7000 99 9.90000 5 101
1912081S11081 1912 15 SI MM NOT_NAMED 1912-03-22 09:00:00 NR -10.9486 81.9425 main 1887 1887 _____P________ -1 -10.9486 81.9425 99 5 102
1912081S11081 1912 15 SI MM NOT_NAMED 1912-03-22 12:00:00 NR -11.0035 82.2113 main 1901 1901 _____P________ -1 -11.0035 82.2113 99 6 102
1912081S11081 1912 15 SI MM NOT_NAMED 1912-03-22 15:00:00 NR -11.0635 82.5032 main 1916 1916 _____P________ -1 -11.0635 82.5032 99 6 102
1912081S11081 1912 15 SI MM NOT_NAMED 1912-03-22 18:00:00 NR -11.1275 82.8151 main 1920 1920 _____P________ -1 -11.1275 82.8151 99 6 102
1912081S11081 1912 15 SI MM NOT_NAMED 1912-03-22 21:00:00 NR -11.1942 83.1439 main 1935 1935 _____P________ -1 -11.1942 83.1439 99 7 102
1912081S11081 1912 15 SI MM NOT_NAMED 1912-03-23 00:00:00 NR -11.2627 83.4864 main 1953 1953 _____P________ -1 -11.2627 83.4864 99 7 101
1912081S11081 1912 15 SI MM NOT_NAMED 1912-03-23 03:00:00 NR -11.3316 83.8395 main 1959 1953 _____P________ -1 -11.3316 83.8395 99 7 101
1912081S11081 1912 15 SI MM NOT_NAMED 1912-03-23 06:00:00 NR -11.4000 84.2000 main 1953 1926 _____O________ -1 -11.4000 84.2000 99 9.90000 7 100
1912081S11081 1912 15 SI MM NOT_NAMED 1912-03-23 09:00:00 NR -11.4605 84.5538 main 1923 1896 _____P________ -1 -11.4605 84.5538 99 7 100
1912081S11081 1912 15 SI MM NOT_NAMED 1912-03-23 12:00:00 NR -11.5209 84.9183 main 1896 1866 _____P________ -1 -11.5209 84.9183 99 7 99
1912081S11081 1912 15 SI MM NOT_NAMED 1912-03-23 15:00:00 NR -11.5814 85.2913 main 1866 1840 _____P________ -1 -11.5814 85.2913 99 7 99
1912081S11081 1912 15 SI MM NOT_NAMED 1912-03-23 18:00:00 NR -11.6424 85.6704 main 1831 1811 _____P________ -1 -11.6424 85.6704 99 8 99
1912081S11081 1912 15 SI MM NOT_NAMED 1912-03-23 21:00:00 NR -11.7044 86.0531 main 1803 1784 _____P________ -1 -11.7044 86.0531 99 8 99
1912081S11081 1912 15 SI MM NOT_NAMED 1912-03-24 00:00:00 NR -11.7677 86.4372 main 1784 1750 _____P________ -1 -11.7677 86.4372 99 8 100
1912081S11081 1912 15 SI MM NOT_NAMED 1912-03-24 03:00:00 NR -11.8327 86.8203 main 1750 1724 _____P________ -1 -11.8327 86.8203 99 8 100
1912081S11081 1912 15 SI MM NOT_NAMED 1912-03-24 06:00:00 NR -11.9000 87.2000 main 1724 1698 _____O________ -1 -11.9000 87.2000 99 9.90000 8 101
1912081S11081 1912 15 SI MM NOT_NAMED 1912-03-24 09:00:00 NR -11.9741 87.5823 main 1698 1674 _____P________ -1 -11.9741 87.5823 99 8 101
1912081S11081 1912 15 SI MM NOT_NAMED 1912-03-24 12:00:00 NR -12.0508 87.9644 main 1674 1650 _____P________ -1 -12.0508 87.9644 99 8 102
1912081S11081 1912 15 SI MM NOT_NAMED 1912-03-24 15:00:00 NR -12.1290 88.3436 main 1650 1627 _____P________ -1 -12.1290 88.3436 99 8 102
1912081S11081 1912 15 SI MM NOT_NAMED 1912-03-24 18:00:00 NR -12.2075 88.7171 main 1627 1605 _____P________ -1 -12.2075 88.7171 99 7 102
1912081S11081 1912 15 SI MM NOT_NAMED 1912-03-24 21:00:00 NR -12.2850 89.0823 main 1605 1583 _____P________ -1 -12.2850 89.0823 99 7 102
1912081S11081 1912 15 SI MM NOT_NAMED 1912-03-25 00:00:00 NR -12.3603 89.4363 main 1592 1563 _____P________ -1 -12.3603 89.4363 99 7 102
1912081S11081 1912 15 SI MM NOT_NAMED 1912-03-25 03:00:00 NR -12.4324 89.7765 main 1563 1551 _____P________ -1 -12.4324 89.7765 99 7 102
1912081S11081 1912 15 SI WA NOT_NAMED 1912-03-25 06:00:00 NR -12.5000 90.1000 main 1551 1537 _____O________ -1 -12.5000 90.1000 99 9.90000 6 102
1912081S11081 1912 15 SI WA NOT_NAMED 1912-03-25 09:00:00 NR -12.5606 90.3998 main 1539 1519 _____P________ -1 -12.5606 90.3998 99 6 102
1912081S11081 1912 15 SI WA NOT_NAMED 1912-03-25 12:00:00 NR -12.6175 90.6828 main 1519 1512 _____P________ -1 -12.6175 90.6828 99 6 102
1912081S11081 1912 15 SI WA NOT_NAMED 1912-03-25 15:00:00 NR -12.6709 90.9519 main 1509 1496 _____P________ -1 -12.6709 90.9519 99 5 101
1912081S11081 1912 15 SI WA NOT_NAMED 1912-03-25 18:00:00 NR -12.7213 91.2103 main 1496 1484 _____P________ -1 -12.7213 91.2103 99 5 101
1912081S11081 1912 15 SI WA NOT_NAMED 1912-03-25 21:00:00 NR -12.7690 91.4612 main 1487 1475 _____P________ -1 -12.7690 91.4612 99 5 101
1912081S11081 1912 15 SI WA NOT_NAMED 1912-03-26 00:00:00 NR -12.8145 91.7077 main 1475 1463 _____P________ -1 -12.8145 91.7077 99 5 101
1912081S11081 1912 15 SI WA NOT_NAMED 1912-03-26 03:00:00 NR -12.8580 91.9529 main 1467 1455 _____P________ -1 -12.8580 91.9529 99 5 100
1912081S11081 1912 15 SI WA NOT_NAMED 1912-03-26 06:00:00 NR -12.9000 92.2000 main 1455 1439 _____O________ -1 -12.9000 92.2000 99 9.90000 5 100
1912081S11081 1912 15 SI WA NOT_NAMED 1912-03-26 09:00:00 NR -12.9420 92.4664 main 1439 1438 _____P________ -1 -12.9420 92.4664 99 5 99
1912081S11081 1912 15 SI WA NOT_NAMED 1912-03-26 12:00:00 NR -12.9820 92.7333 main 1438 1423 _____P________ -1 -12.9820 92.7333 99 5 99
1912081S11081 1912 15 SI WA NOT_NAMED 1912-03-26 15:00:00 NR -13.0203 92.9998 main 1423 1413 _____P________ -1 -13.0203 92.9998 99 5 98
1912081S11081 1912 15 SI WA NOT_NAMED 1912-03-26 18:00:00 NR -13.0573 93.2652 main 1418 1405 _____P________ -1 -13.0573 93.2652 99 5 98
1912081S11081 1912 15 SI WA NOT_NAMED 1912-03-26 21:00:00 NR -13.0933 93.5287 main 1405 1382 _____P________ -1 -13.0933 93.5287 99 5 98
1912081S11081 1912 15 SI WA NOT_NAMED 1912-03-27 00:00:00 NR -13.1289 93.7895 main 1382 1375 _____P________ -1 -13.1289 93.7895 99 5 98
1912081S11081 1912 15 SI WA NOT_NAMED 1912-03-27 03:00:00 NR -13.1643 94.0469 main 1376 1354 _____P________ -1 -13.1643 94.0469 99 5 98
1912081S11081 1912 15 SI WA NOT_NAMED 1912-03-27 06:00:00 NR -13.2000 94.3000 main 1354 1340 _____O________ -1 -13.2000 94.3000 99 9.90000 5 98
1912081S11081 1912 15 SI WA NOT_NAMED 1912-03-27 09:00:00 NR -13.2331 94.5260 main 1340 1333 _____P________ -1 -13.2331 94.5260 99 4 99
1912081S11081 1912 15 SI WA NOT_NAMED 1912-03-27 12:00:00 NR -13.2658 94.7451 main 1335 1313 _____P________ -1 -13.2658 94.7451 99 4 99
1912081S11081 1912 15 SI WA NOT_NAMED 1912-03-27 15:00:00 NR -13.2989 94.9625 main 1313 1298 _____P________ -1 -13.2989 94.9625 99 4 99
1912081S11081 1912 15 SI WA NOT_NAMED 1912-03-27 18:00:00 NR -13.3334 95.1832 main 1298 1291 _____P________ -1 -13.3334 95.1832 99 4 99
1912081S11081 1912 15 SI WA NOT_NAMED 1912-03-27 21:00:00 NR -13.3699 95.4122 main 1293 1279 _____P________ -1 -13.3699 95.4122 99 5 99
1912081S11081 1912 15 SI WA NOT_NAMED 1912-03-28 00:00:00 NR -13.4093 95.6546 main 1272 1258 _____P________ -1 -13.4093 95.6546 99 5 100
1912081S11081 1912 15 SI WA NOT_NAMED 1912-03-28 03:00:00 NR -13.4524 95.9155 main 1264 1238 _____P________ -1 -13.4524 95.9155 99 5 100
1912081S11081 1912 15 SI WA NOT_NAMED 1912-03-28 06:00:00 NR -13.5000 96.2000 main 1238 1212 _____O________ -1 -13.5000 96.2000 99 9.90000 6 99
1912081S11081 1912 15 SI WA NOT_NAMED 1912-03-28 09:00:00 NR -13.5458 96.5278 main 1212 1185 _____P________ -1 -13.5458 96.5278 99 7 98
1912081S11081 1912 15 SI WA NOT_NAMED 1912-03-28 12:00:00 NR -13.5949 96.8794 main 1185 1160 _____P________ -1 -13.5949 96.8794 99 7 98
1912081S11081 1912 15 SI WA NOT_NAMED 1912-03-28 15:00:00 NR -13.6479 97.2495 main 1160 1135 _____P________ -1 -13.6479 97.2495 99 7 99
1912081S11081 1912 15 SI WA NOT_NAMED 1912-03-28 18:00:00 NR -13.7057 97.6331 main 1135 1111 _____P________ -1 -13.7057 97.6331 99 8 99
1912081S11081 1912 15 SI WA NOT_NAMED 1912-03-28 21:00:00 NR -13.7689 98.0250 main 1111 1080 _____P________ -1 -13.7689 98.0250 99 8 100
1912081S11081 1912 15 SI WA NOT_NAMED 1912-03-29 00:00:00 NR -13.8385 98.4202 main 1080 1059 _____P________ -1 -13.8385 98.4202 99 8 101
1912081S11081 1912 15 SI WA NOT_NAMED 1912-03-29 03:00:00 NR -13.9152 98.8136 main 1059 1039 _____P________ -1 -13.9152 98.8136 99 8 102
1912081S11081 1912 15 SI WA NOT_NAMED 1912-03-29 06:00:00 NR -14.0000 99.2000 main 1039 1021 _____O________ -1 -14.0000 99.2000 99 9.90000 8 104
1912081S11081 1912 15 SI WA NOT_NAMED 1912-03-29 09:00:00 NR -14.1017 99.5932 main 1021 1005 _____P________ -1 -14.1017 99.5932 99 8 106
1912081S11081 1912 15 SI WA NOT_NAMED 1912-03-29 12:00:00 NR -14.2129 99.9865 main 1005 990 _____P________ -1 -14.2129 99.9865 99 8 107
1912081S11081 1912 15 SI WA NOT_NAMED 1912-03-29 15:00:00 NR -14.3303 100.374 main 990 983 _____P________ -1 -14.3303 100.374 99 8 108
1912081S11081 1912 15 SI WA NOT_NAMED 1912-03-29 18:00:00 NR -14.4507 100.749 main 992 976 _____P________ -1 -14.4507 100.749 99 7 109
1912081S11081 1912 15 SI WA NOT_NAMED 1912-03-29 21:00:00 NR -14.5710 101.105 main 981 971 _____P________ -1 -14.5710 101.105 99 7 110
1912081S11081 1912 15 SI WA NOT_NAMED 1912-03-30 00:00:00 NR -14.6881 101.437 main 977 968 _____P________ -1 -14.6881 101.437 99 7 110
1912081S11081 1912 15 SI WA NOT_NAMED 1912-03-30 03:00:00 NR -14.7988 101.737 main 974 963 _____P________ -1 -14.7988 101.737 99 6 111
1912081S11081 1912 15 SI WA NOT_NAMED 1912-03-30 06:00:00 NR -14.9000 102.000 main 967 962 _____O________ -1 -14.9000 102.000 99 9.90000 5 112
1912081S11081 1912 15 SI WA NOT_NAMED 1912-03-30 09:00:00 NR -14.9895 102.221 main 966 956 _____P________ -1 -14.9895 102.221 99 4 113
1912081S11081 1912 15 SI WA NOT_NAMED 1912-03-30 12:00:00 NR -15.0681 102.404 main 966 961 _____P________ -1 -15.0681 102.404 99 4 115
1912081S11081 1912 15 SI WA NOT_NAMED 1912-03-30 15:00:00 NR -15.1375 102.554 main 956 956 _____P________ -1 -15.1375 102.554 99 3 117
1912081S11081 1912 15 SI WA NOT_NAMED 1912-03-30 18:00:00 NR -15.1991 102.676 main 962 957 _____P________ -1 -15.1991 102.676 99 2 119
1912081S11081 1912 15 SI WA NOT_NAMED 1912-03-30 21:00:00 NR -15.2547 102.776 main 967 963 _____P________ -1 -15.2547 102.776 99 2 121
1912081S11081 1912 15 SI WA NOT_NAMED 1912-03-31 00:00:00 NR -15.3057 102.860 main 963 963 _____P________ -1 -15.3057 102.860 99 2 123
1912081S11081 1912 15 SI WA NOT_NAMED 1912-03-31 03:00:00 NR -15.3536 102.933 main 973 969 _____P________ -1 -15.3536 102.933 99 2 124
1912081S11081 1912 15 SI WA NOT_NAMED 1912-03-31 06:00:00 NR -15.4000 103.000 main 969 _____O________ -1 -15.4000 103.000 99 9.90000 2 126

About IBTrACS Database

This database is a web-friendly format of International Best Track Archive for Climate Stewardship (IBTrACS), a global best track data archive curated by NOAA dating back to 1842.

Updated: 2021-10-19